Odessa, MN (56276)

7:58 PM CST on November 27, 2014 (GMT -0600)
Ortonville Municipal-Martinson | Change Station
CLOSE
Current Station
Airport
Location: Ortonville,
Elevation: 1099 ft
Nearby Weather Stations

Elev 1099 ft 45.31 °N, 96.42 °W | Updated 4 minutes ago

Snow
Snow
5 °F
Feels Like -12 °F
N
13
Wind Variable Wind from SE

Today
High -- | Low -- °F
--% Chance of Precip.
Yesterday
High -- | Low -- °F
Precip. -- in
7:39 AM 4:45 PM
Waxing Crescent, 35% visible
Pressure 30.19 in
Visibility 1.5 miles
Clouds Overcast 700 ft
Windchill -12 °F
Dew Point 0 °F
Humidity 78%
Rainfall 0.00 in
Snow Depth Not available.
UV 0 out of 12
Pollen .10 out of 12
Air Quality Not available.
Flu Activity Not available.
METAR KVVV 280154Z AUTO 14011KT 1 1/2SM -SN OVC007 M15/M18 A3019 RMK AO2

More Conditions Fewer Conditions

Pressure 30.19 in
Visibility 1.5 miles
Clouds Overcast 700 ft
Windchill -12 °F
Dew Point 0 °F
Humidity 78%
Rainfall 0.00 in
Snow Depth Not available.
UV 0 out of 12
Pollen .10 out of 12
Air Quality Not available.
Flu Activity Not available.
METAR KVVV 280154Z AUTO 14011KT 1 1/2SM -SN OVC007 M15/M18 A3019 RMK AO2

More Conditions Fewer Conditions

10-Day Weather Forecast

Almanac

Astronomy

Nov. 27, 2014 Rise Set
Actual Time
Civil Twilight
Nautical Twilight
Astronomical Twilight
Moon
Length of Visible Light
Length of Day
Tomorrow will be .
, % of the Moon is Illuminated

Today's Extremes

State Highs State Lows

Community

WunderPhotos

Upload Photos

1,774,151 photos uploaded!

WunderBlogs® & News

Nearby

Air Quality

  Air Quality AQ Index Pollutant
Not available.

Snow Depth

Station Depth Elevation

Earthquake Activity

City Distance Mag. Time & Date
Minimum magnitude displayed is 2.5.

Coastal Water Temperatures

Place Temperature

Nearby Weather Stations